createdAt,value
2016-04-07T00:00:32.260Z,0
2016-04-07T00:01:32.246Z,0
2016-04-07T00:02:32.264Z,0
2016-04-07T00:03:32.267Z,0
2016-04-07T00:04:32.301Z,0
2016-04-07T00:05:32.303Z,0
2016-04-07T00:06:32.322Z,0
2016-04-07T00:07:32.356Z,0
2016-04-07T00:08:32.516Z,0
2016-04-07T00:09:32.361Z,0
2016-04-07T00:10:32.380Z,0
2016-04-07T00:11:32.383Z,0
2016-04-07T00:12:32.448Z,0
2016-04-07T00:13:32.419Z,0
2016-04-07T00:14:32.469Z,0
2016-04-07T00:15:32.455Z,0
2016-04-07T00:16:32.498Z,0
2016-04-07T00:17:32.529Z,0
2016-04-07T00:18:32.592Z,0
2016-04-07T00:19:32.670Z,0
2016-04-07T00:20:32.733Z,0
2016-04-07T00:21:32.764Z,0
2016-04-07T00:22:32.783Z,0
2016-04-07T00:23:33.067Z,0
2016-04-07T00:24:32.866Z,0
2016-04-07T00:25:32.729Z,0
2016-04-07T00:26:32.913Z,0
2016-04-07T00:27:32.921Z,0
2016-04-07T00:28:32.945Z,0
2016-04-07T00:29:32.986Z,0
2016-04-07T00:30:32.993Z,0
2016-04-07T00:31:33.000Z,0
2016-04-07T00:32:33.021Z,0
2016-04-07T00:33:33.041Z,0
2016-04-07T00:34:33.045Z,0
2016-04-07T00:35:33.112Z,0
2016-04-07T00:36:33.100Z,0
2016-04-07T00:37:33.120Z,0
2016-04-07T00:38:33.467Z,0
2016-04-07T00:39:33.127Z,0
2016-04-07T00:40:33.130Z,0
2016-04-07T00:41:33.165Z,0
2016-04-07T00:42:33.199Z,0
2016-04-07T00:43:33.234Z,0
2016-04-07T00:44:33.221Z,0
2016-04-07T00:45:33.223Z,0
2016-04-07T00:46:33.243Z,0
2016-04-07T00:47:33.104Z,0
2016-04-07T00:48:33.278Z,0
2016-04-07T00:49:33.265Z,0
2016-04-07T00:50:33.315Z,0
2016-04-07T00:51:33.318Z,0
2016-04-07T00:52:33.352Z,0
2016-04-07T00:53:33.417Z,0
2016-04-07T00:54:33.358Z,0
2016-04-07T00:55:33.376Z,0
2016-04-07T00:56:33.394Z,0
2016-04-07T00:57:33.381Z,0
2016-04-07T00:58:33.447Z,0
2016-04-07T00:59:33.449Z,0
2016-04-07T01:00:33.436Z,0
2016-04-07T01:01:33.455Z,0
2016-04-07T01:02:33.489Z,0
2016-04-07T01:03:33.475Z,0
2016-04-07T01:04:33.525Z,0
2016-04-07T01:05:33.513Z,0
2016-04-07T01:06:33.531Z,0
2016-04-07T01:07:33.564Z,0
2016-04-07T01:08:33.630Z,0
2016-04-07T01:09:33.555Z,0
2016-04-07T01:10:33.588Z,0
2016-04-07T01:11:33.607Z,0
2016-04-07T01:12:33.657Z,0
2016-04-07T01:13:33.659Z,0
2016-04-07T01:14:33.646Z,0
2016-04-07T01:15:33.665Z,0
2016-04-07T01:16:33.667Z,0
2016-04-07T01:17:33.684Z,0
2016-04-07T01:18:33.687Z,0
2016-04-07T01:19:33.721Z,0
2016-04-07T01:20:33.740Z,0
2016-04-07T01:21:33.743Z,0
2016-04-07T01:22:33.776Z,0
2016-04-07T01:23:33.701Z,0
2016-04-07T01:24:33.781Z,0
2016-04-07T01:25:33.816Z,0
2016-04-07T01:26:33.803Z,0
2016-04-07T01:27:33.853Z,0
2016-04-07T01:28:33.855Z,0
2016-04-07T01:29:33.842Z,0
2016-04-07T01:30:33.876Z,0
2016-04-07T01:31:33.894Z,0
2016-04-07T01:32:33.913Z,0
2016-04-07T01:33:33.916Z,0
2016-04-07T01:34:33.949Z,0
2016-04-07T01:35:33.968Z,0
2016-04-07T01:36:33.955Z,0
2016-04-07T01:37:33.974Z,0
2016-04-07T01:38:33.992Z,0
2016-04-07T01:39:34.025Z,0
2016-04-07T01:40:34.013Z,0
2016-04-07T01:41:34.046Z,0
2016-04-07T01:42:34.065Z,0
2016-04-07T01:43:34.052Z,0
2016-04-07T01:44:34.071Z,0
2016-04-07T01:45:34.104Z,0
2016-04-07T01:46:34.107Z,0
2016-04-07T01:47:34.140Z,0
2016-04-07T01:48:34.143Z,0
2016-04-07T01:49:34.162Z,0
2016-04-07T01:50:34.165Z,0
2016-04-07T01:51:34.167Z,0
2016-04-07T01:52:34.185Z,0
2016-04-07T01:53:34.220Z,0
2016-04-07T01:54:34.222Z,0
2016-04-07T01:55:34.225Z,0
2016-04-07T01:56:34.290Z,0
2016-04-07T01:57:34.277Z,0
2016-04-07T01:58:34.264Z,0
2016-04-07T01:59:34.282Z,0
2016-04-07T02:00:34.300Z,0
2016-04-07T02:01:34.303Z,0
2016-04-07T02:02:34.369Z,0
2016-04-07T02:03:34.355Z,0
2016-04-07T02:04:34.358Z,0
2016-04-07T02:05:34.392Z,0
2016-04-07T02:06:48.488Z,0
2016-04-07T02:07:34.397Z,0
2016-04-07T02:08:34.416Z,0
2016-04-07T02:09:34.435Z,0
2016-04-07T02:10:34.438Z,0
2016-04-07T02:11:34.455Z,0
2016-04-07T02:12:34.473Z,0
2016-04-07T02:13:34.508Z,0
2016-04-07T02:14:34.494Z,0
2016-04-07T02:15:34.513Z,0
2016-04-07T02:16:34.516Z,0
2016-04-07T02:17:34.549Z,0
2016-04-07T02:18:34.552Z,0
2016-04-07T02:19:34.571Z,0
2016-04-07T02:20:34.589Z,0
2016-04-07T02:21:34.592Z,0
2016-04-07T02:22:34.610Z,0
2016-04-07T02:23:34.628Z,0
2016-04-07T02:24:34.662Z,0
2016-04-07T02:25:34.649Z,0
2016-04-07T02:26:34.684Z,0
2016-04-07T02:27:34.670Z,0
2016-04-07T02:28:34.704Z,0
2016-04-07T02:29:34.707Z,0
2016-04-07T02:30:34.726Z,0
2016-04-07T02:31:34.728Z,0
2016-04-07T02:32:34.777Z,0
2016-04-07T02:33:34.749Z,0
2016-04-07T02:34:34.752Z,0
2016-04-07T02:35:34.786Z,0
2016-04-07T02:36:34.804Z,0
2016-04-07T02:37:34.838Z,0
2016-04-07T02:38:34.824Z,0
2016-04-07T02:39:34.858Z,0
2016-04-07T02:40:34.846Z,0
2016-04-07T02:41:34.895Z,0
2016-04-07T02:42:34.882Z,0
2016-04-07T02:43:34.901Z,0
2016-04-07T02:44:34.919Z,0
2016-04-07T02:45:34.937Z,0
2016-04-07T02:46:34.940Z,0
2016-04-07T02:47:34.974Z,0
2016-04-07T02:48:34.977Z,0
2016-04-07T02:49:34.995Z,0
2016-04-07T02:50:34.998Z,0
2016-04-07T02:51:35.016Z,0
2016-04-07T02:52:35.034Z,0
2016-04-07T02:53:35.053Z,0
2016-04-07T02:54:35.071Z,0
2016-04-07T02:55:35.090Z,0
2016-04-07T02:56:35.092Z,0
2016-04-07T02:57:35.095Z,0
2016-04-07T02:58:35.128Z,0
2016-04-07T02:59:35.115Z,0
2016-04-07T03:00:35.134Z,0
2016-04-07T03:01:35.184Z,0
2016-04-07T03:02:35.170Z,0
2016-04-07T03:03:35.173Z,0
2016-04-07T03:04:35.176Z,0
2016-04-07T03:05:35.195Z,0
2016-04-07T03:06:35.213Z,0
2016-04-07T03:07:35.231Z,0
2016-04-07T03:08:35.250Z,0
2016-04-07T03:09:35.267Z,0
2016-04-07T03:10:35.270Z,0
2016-04-07T03:11:35.273Z,0
2016-04-07T03:12:35.292Z,0
2016-04-07T03:13:35.309Z,0
2016-04-07T03:14:35.327Z,0
2016-04-07T03:15:35.346Z,0
2016-04-07T03:16:35.349Z,0
2016-04-07T03:17:35.367Z,0
2016-04-07T03:18:35.370Z,0
2016-04-07T03:19:35.403Z,0
2016-04-07T03:20:35.422Z,0
2016-04-07T03:21:35.424Z,0
2016-04-07T03:22:35.474Z,0
2016-04-07T03:23:35.461Z,0
2016-04-07T03:24:35.479Z,0
2016-04-07T03:25:35.498Z,0
2016-04-07T03:26:35.501Z,0
2016-04-07T03:27:35.503Z,0
2016-04-07T03:28:35.522Z,0
2016-04-07T03:29:35.587Z,0
2016-04-07T03:30:35.573Z,0
2016-04-07T03:31:35.561Z,0
2016-04-07T03:32:35.579Z,0
2016-04-07T03:33:35.598Z,0
2016-04-07T03:34:35.616Z,0
2016-04-07T03:35:35.619Z,0
2016-04-07T03:36:35.653Z,0
2016-04-07T03:37:35.672Z,0
2016-04-07T03:38:35.689Z,0
2016-04-07T03:39:35.692Z,0
2016-04-07T03:40:35.695Z,0
2016-04-07T03:41:35.713Z,0
2016-04-07T03:42:35.731Z,0
2016-04-07T03:43:35.749Z,0
2016-04-07T03:44:35.769Z,0
2016-04-07T03:45:35.755Z,0
2016-04-07T03:46:35.789Z,0
2016-04-07T03:47:35.792Z,0
2016-04-07T03:48:35.793Z,0
2016-04-07T03:49:35.828Z,0
2016-04-07T03:50:35.831Z,0
2016-04-07T03:51:35.896Z,0
2016-04-07T03:52:35.882Z,0
2016-04-07T03:53:35.886Z,0
2016-04-07T03:54:35.905Z,0
2016-04-07T03:55:35.907Z,0
2016-04-07T03:56:35.940Z,0
2016-04-07T03:57:35.959Z,0
2016-04-07T03:58:35.962Z,0
2016-04-07T03:59:35.980Z,0
2016-04-07T04:00:35.998Z,0
2016-04-07T04:01:36.017Z,0
2016-04-07T04:02:36.019Z,0
2016-04-07T04:03:36.037Z,0
2016-04-07T04:04:36.072Z,0
2016-04-07T04:05:36.075Z,0
2016-04-07T04:06:36.108Z,0
2016-04-07T04:07:36.095Z,0
2016-04-07T04:08:36.114Z,0
2016-04-07T04:09:36.133Z,0
2016-04-07T04:10:36.135Z,0
2016-04-07T04:11:36.216Z,0
2016-04-07T04:12:36.172Z,0
2016-04-07T04:13:36.174Z,0
2016-04-07T04:14:36.192Z,4
2016-04-07T04:15:36.195Z,4
2016-04-07T04:16:36.213Z,4
2016-04-07T04:17:36.232Z,0
2016-04-07T04:18:36.235Z,4
2016-04-07T04:19:36.253Z,4
2016-04-07T04:20:36.302Z,4
2016-04-07T04:21:36.290Z,4
2016-04-07T04:22:36.293Z,4
2016-04-07T04:23:36.310Z,8
2016-04-07T04:24:36.329Z,8
2016-04-07T04:25:36.332Z,8
2016-04-07T04:26:36.365Z,12
2016-04-07T04:27:36.368Z,12
2016-04-07T04:28:36.387Z,16
2016-04-07T04:29:36.405Z,12
2016-04-07T04:30:36.406Z,16
2016-04-07T04:31:36.441Z,20
2016-04-07T04:32:36.428Z,32
2016-04-07T04:33:36.462Z,20
2016-04-07T04:34:36.465Z,24
2016-04-07T04:35:36.498Z,24
2016-04-07T04:36:36.501Z,24
2016-04-07T04:37:36.503Z,20
2016-04-07T04:38:36.522Z,20
2016-04-07T04:39:36.541Z,16
2016-04-07T04:40:36.559Z,16
2016-04-07T04:41:36.594Z,20
2016-04-07T04:42:36.580Z,20
2016-04-07T04:43:36.613Z,24
2016-04-07T04:44:36.601Z,28
2016-04-07T04:45:36.635Z,28
2016-04-07T04:46:36.638Z,32
2016-04-07T04:47:36.671Z,32
2016-04-07T04:48:36.674Z,32
2016-04-07T04:49:36.693Z,32
2016-04-07T04:50:36.711Z,28
2016-04-07T04:51:36.713Z,28
2016-04-07T04:52:36.732Z,28
2016-04-07T04:53:36.782Z,24
2016-04-07T04:54:36.738Z,28
2016-04-07T04:55:36.787Z,28
2016-04-07T04:56:36.790Z,24
2016-04-07T04:57:36.793Z,24
2016-04-07T04:58:36.826Z,28
2016-04-07T04:59:36.845Z,24
2016-04-07T05:00:36.847Z,28
2016-04-07T05:01:36.850Z,28
2016-04-07T05:02:36.884Z,28
2016-04-07T05:03:36.887Z,28
2016-04-07T05:04:36.936Z,32
2016-04-07T05:05:36.923Z,36
2016-04-07T05:06:36.926Z,36
2016-04-07T05:07:36.929Z,40
2016-04-07T05:08:36.931Z,44
2016-04-07T05:09:37.012Z,48
2016-04-07T05:10:36.983Z,48
2016-04-07T05:11:37.017Z,52
2016-04-07T05:12:37.020Z,52
2016-04-07T05:13:37.054Z,56
2016-04-07T05:14:37.042Z,56
2016-04-07T05:15:37.060Z,60
2016-04-07T05:16:37.063Z,60
2016-04-07T05:17:37.096Z,64
2016-04-07T05:18:37.130Z,64
2016-04-07T05:19:37.133Z,68
2016-04-07T05:20:37.135Z,68
2016-04-07T05:21:37.154Z,68
2016-04-07T05:22:37.157Z,76
2016-04-07T05:23:37.174Z,76
2016-04-07T05:24:37.209Z,80
2016-04-07T05:25:37.211Z,84
2016-04-07T05:26:37.214Z,84
2016-04-07T05:27:37.232Z,88
2016-04-07T05:28:37.251Z,92
2016-04-07T05:29:37.254Z,92
2016-04-07T05:30:37.271Z,96
2016-04-07T05:31:37.306Z,100
2016-04-07T05:32:37.292Z,104
2016-04-07T05:33:37.342Z,104
2016-04-07T05:34:37.329Z,112
2016-04-07T05:35:37.348Z,116
2016-04-07T05:36:37.350Z,128
2016-04-07T05:37:37.353Z,132
2016-04-07T05:38:37.387Z,136
2016-04-07T05:39:37.437Z,140
2016-04-07T05:40:37.423Z,152
2016-04-07T05:41:37.442Z,160
2016-04-07T05:42:37.460Z,164
2016-04-07T05:43:37.463Z,168
2016-04-07T05:44:37.481Z,172
2016-04-07T05:45:37.500Z,172
2016-04-07T05:46:37.502Z,176
2016-04-07T05:47:37.552Z,176
2016-04-07T05:48:37.539Z,180
2016-04-07T05:49:37.558Z,180
2016-04-07T05:50:37.560Z,188
2016-04-07T05:51:37.578Z,192
2016-04-07T05:52:37.613Z,204
2016-04-07T05:53:37.615Z,216
2016-04-07T05:54:37.633Z,220
2016-04-07T05:55:37.652Z,228
2016-04-07T05:56:37.686Z,244
2016-04-07T05:57:37.673Z,252
2016-04-07T05:58:37.706Z,260
2016-04-07T05:59:37.724Z,268
2016-04-07T06:00:37.712Z,276
2016-04-07T06:01:37.745Z,280
2016-04-07T06:02:37.764Z,300
2016-04-07T06:03:37.782Z,304
2016-04-07T06:04:37.785Z,316
2016-04-07T06:05:37.803Z,328
2016-04-07T06:06:37.790Z,336
2016-04-07T06:07:37.699Z,340
2016-04-07T06:08:37.847Z,360
2016-04-07T06:09:37.850Z,372
2016-04-07T06:10:37.869Z,392
2016-04-07T06:11:37.887Z,416
2016-04-07T06:12:37.905Z,416
2016-04-07T06:13:37.908Z,420
2016-04-07T06:14:37.927Z,420
2016-04-07T06:15:37.944Z,424
2016-04-07T06:16:37.978Z,440
2016-04-07T06:17:37.981Z,468
2016-04-07T06:18:37.983Z,488
2016-04-07T06:19:52.111Z,500
2016-04-07T06:20:38.005Z,524
2016-04-07T06:21:38.039Z,536
2016-04-07T06:22:38.057Z,552
2016-04-07T06:23:38.060Z,552
2016-04-07T06:24:38.124Z,540
2016-04-07T06:25:38.081Z,532
2016-04-07T06:26:38.098Z,536
2016-04-07T06:27:38.132Z,572
2016-04-07T06:28:38.135Z,588
2016-04-07T06:29:38.154Z,608
2016-04-07T06:30:38.172Z,584
2016-04-07T06:31:38.175Z,572
2016-04-07T06:32:38.209Z,556
2016-04-07T06:33:38.227Z,556
2016-04-07T06:34:38.214Z,556
2016-04-07T06:35:38.248Z,568
2016-04-07T06:36:38.251Z,576
2016-04-07T06:37:38.284Z,616
2016-04-07T06:38:38.303Z,636
2016-04-07T06:39:38.321Z,648
2016-04-07T06:40:38.325Z,628
2016-04-07T06:41:38.327Z,592
2016-04-07T06:42:38.423Z,568
2016-04-07T06:43:38.364Z,572
2016-04-07T06:44:38.398Z,560
2016-04-07T06:45:38.400Z,564
2016-04-07T06:46:38.418Z,572
2016-04-07T06:47:38.452Z,572
2016-04-07T06:48:38.455Z,580
2016-04-07T06:49:38.474Z,588
2016-04-07T06:50:38.477Z,596
2016-04-07T06:51:38.494Z,604
2016-04-07T06:52:38.529Z,620
2016-04-07T06:53:38.515Z,632
2016-04-07T06:54:38.534Z,644
2016-04-07T06:55:38.536Z,652
2016-04-07T06:56:38.554Z,660
2016-04-07T06:57:38.588Z,676
2016-04-07T06:58:38.607Z,692
2016-04-07T06:59:38.626Z,700
2016-04-07T07:00:38.628Z,696
2016-04-07T07:01:38.662Z,712
2016-04-07T07:02:38.648Z,744
2016-04-07T07:03:38.667Z,796
2016-04-07T07:04:38.701Z,880
2016-04-07T07:05:38.704Z,920
2016-04-07T07:06:38.707Z,964
2016-04-07T07:07:38.740Z,992
2016-04-07T07:08:38.759Z,972
2016-04-07T07:09:38.825Z,960
2016-04-07T07:10:38.764Z,960
2016-04-07T07:11:38.814Z,956
2016-04-07T07:12:38.816Z,932
2016-04-07T07:13:38.835Z,920
2016-04-07T07:14:38.838Z,940
2016-04-07T07:15:38.903Z,964
2016-04-07T07:16:38.875Z,992
2016-04-07T07:17:38.924Z,1004
2016-04-07T07:18:38.911Z,1012
2016-04-07T07:19:38.913Z,1012
2016-04-07T07:20:38.947Z,1016
2016-04-07T07:21:38.966Z,1044
2016-04-07T07:22:38.968Z,1080
2016-04-07T07:23:38.987Z,1092
2016-04-07T07:24:39.067Z,1116
2016-04-07T07:25:39.023Z,1128
2016-04-07T07:26:39.026Z,1148
2016-04-07T07:27:39.060Z,1144
2016-04-07T07:28:39.063Z,1144
2016-04-07T07:29:39.096Z,1172
2016-04-07T07:30:39.068Z,1228
2016-04-07T07:31:39.117Z,1248
2016-04-07T07:32:38.965Z,1224
2016-04-07T07:33:38.894Z,1224
2016-04-07T07:34:39.006Z,1280
2016-04-07T07:35:39.024Z,1336
2016-04-07T07:36:39.230Z,1352
2016-04-07T07:37:39.249Z,1332
2016-04-07T07:38:39.236Z,1292
2016-04-07T07:39:39.587Z,1244
2016-04-07T07:40:39.246Z,1228
2016-04-07T07:41:39.264Z,1224
2016-04-07T07:42:39.298Z,1240
2016-04-07T07:43:39.801Z,1280
2016-04-07T07:44:39.335Z,1340
2016-04-07T07:45:39.353Z,1436
2016-04-07T07:46:39.091Z,1496
2016-04-07T07:47:39.375Z,1532
2016-04-07T07:48:39.378Z,1504
2016-04-07T07:49:39.411Z,1464
2016-04-07T07:50:39.445Z,1384
2016-04-07T07:51:39.479Z,1380
2016-04-07T07:52:39.482Z,1400
2016-04-07T07:53:39.484Z,1420
2016-04-07T07:54:39.877Z,1416
2016-04-07T07:55:39.521Z,1404
2016-04-07T07:56:39.523Z,1388
2016-04-07T07:57:39.385Z,1360
2016-04-07T07:58:39.544Z,1360
2016-04-07T07:59:39.610Z,1388
2016-04-07T08:00:39.582Z,1416
2016-04-07T08:01:39.646Z,1468
2016-04-07T08:02:39.759Z,1476
2016-04-07T08:03:39.637Z,1480
2016-04-07T08:04:39.654Z,1516
2016-04-07T08:05:39.673Z,1552
2016-04-07T08:06:39.690Z,1616
2016-04-07T08:07:39.709Z,1708
2016-04-07T08:08:39.759Z,1796
2016-04-07T08:09:39.684Z,1888
2016-04-07T08:10:39.781Z,1944
2016-04-07T08:11:39.767Z,1900
2016-04-07T08:12:39.661Z,1748
2016-04-07T08:13:39.897Z,1612
2016-04-07T08:14:39.822Z,1524
2016-04-07T08:15:39.934Z,1448
2016-04-07T08:16:39.875Z,1400
2016-04-07T08:17:39.878Z,1372
2016-04-07T08:18:39.911Z,1344
2016-04-07T08:19:39.898Z,1344
2016-04-07T08:20:39.963Z,1344
2016-04-07T08:21:40.013Z,1360
2016-04-07T08:22:39.953Z,1356
2016-04-07T08:23:39.971Z,1344
2016-04-07T08:24:39.880Z,1316
2016-04-07T08:25:39.991Z,1296
2016-04-07T08:26:40.026Z,1296
2016-04-07T08:27:40.029Z,1292
2016-04-07T08:28:40.094Z,1300
2016-04-07T08:29:40.488Z,1308
2016-04-07T08:30:40.085Z,1292
2016-04-07T08:31:40.102Z,1288
2016-04-07T08:32:40.121Z,1284
2016-04-07T08:33:40.170Z,1304
2016-04-07T08:34:40.173Z,1320
2016-04-07T08:35:40.206Z,1316
2016-04-07T08:36:40.272Z,1356
2016-04-07T08:37:40.261Z,1400
2016-04-07T08:38:40.216Z,1460
2016-04-07T08:39:40.266Z,1492
2016-04-07T08:40:40.252Z,1516
2016-04-07T08:41:40.271Z,1512
2016-04-07T08:42:40.288Z,1488
2016-04-07T08:43:40.291Z,1432
2016-04-07T08:44:40.326Z,1408
2016-04-07T08:45:40.360Z,1392
2016-04-07T08:46:40.378Z,1396
2016-04-07T08:47:40.380Z,1400
2016-04-07T08:48:40.415Z,1380
2016-04-07T08:49:40.307Z,1380
2016-04-07T08:50:40.451Z,1380
2016-04-07T08:51:40.453Z,1368
2016-04-07T08:52:40.472Z,1356
2016-04-07T08:53:40.490Z,1328
2016-04-07T08:54:40.540Z,1332
2016-04-07T08:55:40.292Z,1344
2016-04-07T08:56:40.545Z,1344
2016-04-07T08:57:40.564Z,1304
2016-04-07T08:58:40.581Z,1268
2016-04-07T08:59:40.600Z,1256
2016-04-07T09:00:40.603Z,1252
2016-04-07T09:01:40.637Z,1252
2016-04-07T09:02:40.640Z,1248
2016-04-07T09:03:40.658Z,1228
2016-04-07T09:04:40.708Z,1248
2016-04-07T09:05:40.694Z,1256
2016-04-07T09:06:40.713Z,1272
2016-04-07T09:08:12.327Z,1288
2016-04-07T09:08:40.749Z,1280
2016-04-07T09:09:40.783Z,1288
2016-04-07T09:10:40.786Z,1296
2016-04-07T09:11:40.804Z,1276
2016-04-07T09:12:40.808Z,1276
2016-04-07T09:13:40.888Z,1272
2016-04-07T09:14:40.828Z,1276
2016-04-07T09:15:40.877Z,1284
2016-04-07T09:16:40.896Z,1284
2016-04-07T09:17:40.899Z,1296
2016-04-07T09:18:40.917Z,1292
2016-04-07T09:19:40.951Z,1308
2016-04-07T09:20:40.953Z,1320
2016-04-07T09:21:40.988Z,1352
2016-04-07T09:22:40.998Z,1400
2016-04-07T09:23:41.069Z,1384
2016-04-07T09:24:41.123Z,1348
2016-04-07T09:25:41.162Z,1352
2016-04-07T09:26:41.233Z,1332
2016-04-07T09:27:41.303Z,1324
2016-04-07T09:28:41.289Z,1340
2016-04-07T09:29:41.304Z,1360
2016-04-07T09:30:41.351Z,1344
2016-04-07T09:31:41.399Z,1348
2016-04-07T09:32:41.409Z,1348
2016-04-07T09:33:41.431Z,1328
2016-04-07T09:34:41.485Z,1312
2016-04-07T09:35:41.492Z,1284
2016-04-07T09:36:41.500Z,1264
2016-04-07T09:37:41.505Z,1256
2016-04-07T09:38:41.541Z,1256
2016-04-07T09:39:41.562Z,1248
2016-04-07T09:40:41.583Z,1252
2016-04-07T09:41:41.587Z,1236
2016-04-07T09:42:41.638Z,1232
2016-04-07T09:43:41.641Z,1220
2016-04-07T09:44:41.660Z,1204
2016-04-07T09:45:41.507Z,1192
2016-04-07T09:46:41.666Z,1164
2016-04-07T09:47:41.700Z,1144
2016-04-07T09:48:41.719Z,1140
2016-04-07T09:49:41.785Z,1144
2016-04-07T09:50:41.834Z,1148
2016-04-07T09:51:41.758Z,1164
2016-04-07T09:52:41.777Z,1188
2016-04-07T09:53:41.795Z,1188
2016-04-07T09:54:41.829Z,1176
2016-04-07T09:55:41.847Z,1184
2016-04-07T09:56:41.882Z,1184
2016-04-07T09:57:41.899Z,1184
2016-04-07T09:58:41.918Z,1196
2016-04-07T09:59:41.921Z,1200
2016-04-07T10:00:41.907Z,1184
2016-04-07T10:01:41.942Z,1180
2016-04-07T10:02:41.959Z,1176
2016-04-07T10:03:41.962Z,1156
2016-04-07T10:04:41.996Z,1144
2016-04-07T10:05:42.015Z,1156
2016-04-07T10:06:42.049Z,1188
2016-04-07T10:07:42.037Z,1220
2016-04-07T10:08:42.069Z,1260
2016-04-07T10:09:42.088Z,1308
2016-04-07T10:10:42.122Z,1356
2016-04-07T10:11:42.156Z,1396
2016-04-07T10:12:42.158Z,1420
2016-04-07T10:13:42.145Z,1456
2016-04-07T10:14:42.164Z,1500
2016-04-07T10:15:42.182Z,1548
2016-04-07T10:16:42.217Z,1592
2016-04-07T10:17:42.203Z,1644
2016-04-07T10:18:42.253Z,1704
2016-04-07T10:19:42.287Z,1804
2016-04-07T10:20:42.289Z,1852
2016-04-07T10:21:42.292Z,1852
2016-04-07T10:22:42.310Z,1784
2016-04-07T10:23:42.314Z,1720
2016-04-07T10:24:42.332Z,1660
2016-04-07T10:25:42.366Z,1596
2016-04-07T10:26:42.385Z,1580
2016-04-07T10:27:42.402Z,1600
2016-04-07T10:28:42.421Z,1628
2016-04-07T10:29:42.423Z,1668
2016-04-07T10:30:42.441Z,1716
2016-04-07T10:31:42.490Z,1668
2016-04-07T10:32:42.509Z,1656
2016-04-07T10:33:42.512Z,1616
2016-04-07T10:34:42.531Z,1616
2016-04-07T10:35:42.674Z,1604
2016-04-07T10:36:42.567Z,1632
2016-04-07T10:37:42.570Z,1664
2016-04-07T10:38:42.587Z,1716
2016-04-07T10:39:42.590Z,1800
2016-04-07T10:40:42.655Z,1888
2016-04-07T10:41:42.642Z,1992
2016-04-07T10:42:42.661Z,2152
2016-04-07T10:43:42.664Z,2300
2016-04-07T10:44:42.698Z,2392
2016-04-07T10:45:42.717Z,2384
2016-04-07T10:46:42.734Z,2248
2016-04-07T10:47:42.753Z,2240
2016-04-07T10:48:42.772Z,2268
2016-04-07T10:49:42.774Z,2316
2016-04-07T10:50:42.792Z,2312
2016-04-07T10:51:42.827Z,2384
2016-04-07T10:52:42.830Z,2480
2016-04-07T10:53:42.847Z,2552
2016-04-07T10:54:42.897Z,2508
2016-04-07T10:55:42.883Z,2508
2016-04-07T10:56:42.933Z,2588
2016-04-07T10:57:42.936Z,2668
2016-04-07T10:58:42.938Z,2688
2016-04-07T10:59:42.957Z,2688
2016-04-07T11:00:42.975Z,2728
2016-04-07T11:01:42.993Z,2720
2016-04-07T11:02:43.027Z,2676
2016-04-07T11:03:43.062Z,2588
2016-04-07T11:04:43.065Z,2504
2016-04-07T11:05:43.082Z,2480
2016-04-07T11:06:43.101Z,2448
2016-04-07T11:07:43.150Z,2436
2016-04-07T11:08:43.137Z,2480
2016-04-07T11:09:43.155Z,2416
2016-04-07T11:10:43.173Z,2336
2016-04-07T11:11:43.223Z,2300
2016-04-07T11:12:43.226Z,2260
2016-04-07T11:13:43.229Z,2176
2016-04-07T11:14:43.232Z,2120
2016-04-07T11:15:43.266Z,2056
2016-04-07T11:16:43.300Z,1952
2016-04-07T11:17:43.505Z,1904
2016-04-07T11:18:43.336Z,1876
2016-04-07T11:19:43.667Z,1876
2016-04-07T11:20:43.342Z,1824
2016-04-07T11:21:43.376Z,1788
2016-04-07T11:22:43.378Z,1840
2016-04-07T11:23:43.428Z,1988
2016-04-07T11:24:43.415Z,2088
2016-04-07T11:25:43.449Z,2092
2016-04-07T11:26:43.498Z,2012
2016-04-07T11:27:43.501Z,2064
2016-04-07T11:28:43.504Z,2316
2016-04-07T11:29:43.522Z,2516
2016-04-07T11:30:43.541Z,2516
2016-04-07T11:31:43.559Z,2420
2016-04-07T11:32:43.437Z,2376
2016-04-07T11:33:43.596Z,2376
2016-04-07T11:34:43.645Z,2396
2016-04-07T11:35:43.632Z,2352
2016-04-07T11:36:44.354Z,2256
2016-04-07T11:37:43.668Z,2216
2016-04-07T11:38:43.703Z,2136
2016-04-07T11:39:43.721Z,2016
2016-04-07T11:40:43.724Z,1892
2016-04-07T11:41:43.757Z,1820
2016-04-07T11:42:43.823Z,1768
2016-04-07T11:43:43.795Z,1700
2016-04-07T11:44:43.828Z,1648
2016-04-07T11:45:43.847Z,1620
2016-04-07T11:46:43.881Z,1600
2016-04-07T11:47:43.867Z,1576
2016-04-07T11:48:43.917Z,1548
2016-04-07T11:49:43.936Z,1512
2016-04-07T11:50:43.938Z,1496
2016-04-07T11:51:43.941Z,1492
2016-04-07T11:52:43.959Z,1484
2016-04-07T11:53:44.055Z,1488
2016-04-07T11:54:44.027Z,1464
2016-04-07T11:55:44.030Z,1436
2016-04-07T11:56:44.080Z,1444
2016-04-07T11:57:44.082Z,1480
2016-04-07T11:58:44.085Z,1540
2016-04-07T11:59:44.181Z,1604
2016-04-07T12:00:44.137Z,1632
2016-04-07T12:01:44.140Z,1672
2016-04-07T12:02:44.158Z,1632
2016-04-07T12:03:44.191Z,1600
2016-04-07T12:04:44.226Z,1572
2016-04-07T12:05:44.229Z,1548
2016-04-07T12:06:44.231Z,1516
2016-04-07T12:07:44.265Z,1512
2016-04-07T12:08:44.268Z,1516
2016-04-07T12:09:44.317Z,1520
2016-04-07T12:10:44.320Z,1540
2016-04-07T12:11:44.369Z,1544
2016-04-07T12:12:44.340Z,1548
2016-04-07T12:13:44.406Z,1552
2016-04-07T12:14:44.409Z,1564
2016-04-07T12:15:44.412Z,1580
2016-04-07T12:16:44.445Z,1636
2016-04-07T12:17:44.464Z,1676
2016-04-07T12:18:44.481Z,1676
2016-04-07T12:19:44.516Z,1624
2016-04-07T12:20:44.503Z,1592
2016-04-07T12:21:44.677Z,1600
2016-04-07T12:22:44.539Z,1616
2016-04-07T12:23:44.573Z,1588
2016-04-07T12:24:44.451Z,1588
2016-04-07T12:25:44.610Z,1576
2016-04-07T12:26:44.644Z,1520
2016-04-07T12:27:44.663Z,1500
2016-04-07T12:28:44.665Z,1500
2016-04-07T12:29:44.683Z,1548
2016-04-07T12:30:44.718Z,1604
2016-04-07T12:31:44.720Z,1608
2016-04-07T12:32:44.738Z,1600
2016-04-07T12:33:44.959Z,1604
2016-04-07T12:34:44.774Z,1576
2016-04-07T12:35:44.793Z,1544
2016-04-07T12:36:44.827Z,1524
2016-04-07T12:37:44.955Z,1536
2016-04-07T12:38:44.910Z,1548
2016-04-07T12:39:44.882Z,1552
2016-04-07T12:40:44.884Z,1496
2016-04-07T12:41:44.934Z,1492
2016-04-07T12:42:44.953Z,1488
2016-04-07T12:43:44.971Z,1460
2016-04-07T12:44:44.990Z,1404
2016-04-07T12:45:44.992Z,1400
2016-04-07T12:46:45.042Z,1408
2016-04-07T12:47:45.059Z,1404
2016-04-07T12:48:45.531Z,1396
2016-04-07T12:49:45.346Z,1376
2016-04-07T12:50:45.286Z,1356
2016-04-07T12:51:45.680Z,1348
2016-04-07T12:52:45.354Z,1356
2016-04-07T12:53:45.311Z,1368
2016-04-07T12:54:45.172Z,1392
2016-04-07T12:55:45.191Z,1416
2016-04-07T12:56:45.212Z,1380
2016-04-07T12:57:45.230Z,1296
2016-04-07T12:58:45.249Z,1288
2016-04-07T12:59:45.266Z,1268
2016-04-07T13:00:45.269Z,1272
2016-04-07T13:01:45.319Z,1304
2016-04-07T13:02:45.322Z,1340
2016-04-07T13:03:45.371Z,1384
2016-04-07T13:04:45.358Z,1460
2016-04-07T13:05:45.393Z,1548
2016-04-07T13:06:45.395Z,1604
2016-04-07T13:07:45.257Z,1580
2016-04-07T13:08:45.448Z,1528
2016-04-07T13:09:45.450Z,1536
2016-04-07T13:10:45.499Z,1548
2016-04-07T13:11:45.518Z,1536
2016-04-07T13:12:45.520Z,1556
2016-04-07T13:13:45.555Z,1572
2016-04-07T13:14:45.557Z,1592
2016-04-07T13:15:45.576Z,1600
2016-04-07T13:16:45.594Z,1584
2016-04-07T13:17:46.112Z,1588
2016-04-07T13:18:46.052Z,1540
2016-04-07T13:19:45.961Z,1500
2016-04-07T13:20:45.730Z,1480
2016-04-07T13:21:45.732Z,1432
2016-04-07T13:22:45.720Z,1416
2016-04-07T13:23:45.738Z,1436
2016-04-07T13:24:45.741Z,1424
2016-04-07T13:25:45.790Z,1420
2016-04-07T13:26:45.792Z,1452
2016-04-07T13:27:45.800Z,1436
2016-04-07T13:28:45.818Z,1424
2016-04-07T13:29:45.837Z,1372
2016-04-07T13:30:45.855Z,1308
2016-04-07T13:31:45.889Z,1288
2016-04-07T13:32:45.892Z,1276
2016-04-07T13:33:45.941Z,1260
2016-04-07T13:34:45.929Z,1220
2016-04-07T13:35:45.946Z,1180
2016-04-07T13:36:45.981Z,1144
2016-04-07T13:37:46.014Z,1124
2016-04-07T13:38:46.001Z,1100
2016-04-07T13:39:46.035Z,1084
2016-04-07T13:40:46.070Z,1060
2016-04-07T13:41:46.073Z,1024
2016-04-07T13:42:46.059Z,1012
2016-04-07T13:44:45.956Z,952
2016-04-07T13:45:46.130Z,908
2016-04-07T13:46:46.148Z,868
2016-04-07T13:47:46.166Z,812
2016-04-07T13:48:46.200Z,780
2016-04-07T13:49:46.219Z,780
2016-04-07T13:50:46.222Z,764
2016-04-07T13:51:46.239Z,744
2016-04-07T13:52:46.274Z,740
2016-04-07T13:53:46.292Z,720
2016-04-07T13:54:46.295Z,700